ジュノー の空港の天気 - METARとTAF

ジュノー国際空港 ( PAJN / JNU ) - アメリカ アラスカ州ジュノー
飛行場実況気象(Metar)
観測時間05/27 17:53 AKDT (05/28 01:53 UTC)
風向・風速西南西 5m/s
視程10km以上
天気現象
全天の8割程度の雲 雲底高度 6100m
気温15.6℃
湿度36%
気圧1021.5hPa
METARPAJN 280153Z 24009KT 10SM BKN200 16/01 A3017 RMK AO2 SLP215 T01560006 $
過去の天気等 Google飛行場航空写真 Wunderground天気予報

過去48時間のMETAR

飛行場予報(TAF)
発表時間: 5/27 15:33 AKDT (5/27 23:33 UTC)
予報対象時間: 27日16時 AKDT ~ 28日16時 AKDT
風向・風速南西 6m/s
視程10km以上
少しの雲 雲底高度 1830m
全天の4割程度の雲 雲底高度 6100m
27日20時 AKDT から
風向・風速不定 2m/s
視程10km以上
全天の4割程度の雲 雲底高度 6100m
28日4時 AKDT から
風向・風速静穏
視程10km以上
天気現象散在した霧
少しの雲 雲底高度 90m
28日10時 AKDT から
風向・風速南西 3m/s
視程10km以上
少しの雲 雲底高度 1070m
28日13時 AKDT から
風向・風速西南西 5m/s
視程10km以上
全天の4割程度の雲 雲底高度 7620m
PAJN 272333Z 2800/2824 23012KT P6SM FEW060 SCT200
FM280400 VRB04KT P6SM SCT200
FM281200 00000KT P6SM BCFG FEW003
FM281800 23005KT P6SM FEW035
FM282100 24010KT P6SM SCT250